CheckWX is a tool to help pilots better visualize weather data.  It is not intended as a substitute for an official pre-flight weather briefing.

21:14:03 UTC

KMUI TAF
Muir AAF (Fort Indiantown Gap) Airport
Fort Indiantown Gap(Annville), Pennsylvania, USA
TAF KMUI 161900Z 1619/1801 25012KT 9000 -SHRA BKN020 OVC050 QNH2981INS BECMG 1622/1623 25006KT 9999 NSW BKN020 OVC050 QNH2983INS BECMG 1713/1714 26006KT 9000 -SHRA BKN010 QNH2996INS BECMG 1717/1718 31006KT 9999 NSW BKN020 QNH2994INS BECMG 1720/1721 01006KT 8000 -SHRA BKN015 QNH2993INS TX27/1619Z TN19/1707Z LAST NO AMDS AFT 1704 NEXT 1711

Jun-16@
19:00 UTC

Jun-16 @ 19:00 UTC

Jun-16@
22:00 UTC

Jun-16 @ 22:00 UTC

TAF KMUI 161900Z 1619/1801 25012KT 9000 -SHRA BKN020 OVC050 QNH2981INS
Wind
  • 250° at 12 KTS
Conditions
Light Rain
Cloud Levels
  • Broken at 2,000' AGL
  • Overcast at 5,000' AGL

Jun-16@
22:00 UTC

Jun-16 @ 22:00 UTC

Jun-17@
13:00 UTC

Jun-17 @ 13:00 UTC

BECMG 1622/1623 25006KT 9999 NSW BKN020 OVC050 QNH2983INS

Becoming

Becoming Conditions expected by Sun, Jun 16, 2019 @ 23:00 UTC

Wind
  • 250° at 6 KTS
Conditions
No significant weather
Cloud Levels
  • Broken at 2,000' AGL
  • Overcast at 5,000' AGL

Jun-17@
13:00 UTC

Jun-17 @ 13:00 UTC

Jun-17@
17:00 UTC

Jun-17 @ 17:00 UTC

BECMG 1713/1714 26006KT 9000 -SHRA BKN010 QNH2996INS

Becoming

Becoming Conditions expected by Mon, Jun 17, 2019 @ 14:00 UTC

Wind
  • 260° at 6 KTS
Conditions
Light Rain
Cloud Levels
  • Broken at 1,000' AGL

Jun-17@
17:00 UTC

Jun-17 @ 17:00 UTC

Jun-17@
20:00 UTC

Jun-17 @ 20:00 UTC

BECMG 1717/1718 31006KT 9999 NSW BKN020 QNH2994INS

Becoming

Becoming Conditions expected by Mon, Jun 17, 2019 @ 18:00 UTC

Wind
  • 310° at 6 KTS
Conditions
No significant weather
Cloud Levels
  • Broken at 2,000' AGL

Jun-17@
20:00 UTC

Jun-17 @ 20:00 UTC

Jun-18@
01:00 UTC

Jun-18 @ 01:00 UTC

BECMG 1720/1721 01006KT 8000 -SHRA BKN015 QNH2993INS TX27/1619Z TN19/1707Z LAST NO AMDS AFT 1704 NEXT 1711

Becoming

Becoming Conditions expected by Mon, Jun 17, 2019 @ 21:00 UTC

Wind
  • 010° at 6 KTS
Conditions
Light Rain
Cloud Levels
  • Broken at 1,500' AGL